createdAt,value
2022-11-23T00:01:36.927Z,13.34
2022-11-23T00:04:09.160Z,13.32
2022-11-23T00:06:38.131Z,13.35
2022-11-23T00:09:08.366Z,13.39
2022-11-23T00:11:36.582Z,13.43
2022-11-23T00:14:05.141Z,13.46
2022-11-23T00:16:33.287Z,13.47
2022-11-23T00:19:02.572Z,13.48
2022-11-23T00:21:32.828Z,13.47
2022-11-23T00:24:01.645Z,13.46
2022-11-23T00:26:29.485Z,13.46
2022-11-23T00:28:57.427Z,13.42
2022-11-23T00:31:27.968Z,13.42
2022-11-23T00:33:57.703Z,13.46
2022-11-23T00:36:27.303Z,13.48
2022-11-23T00:38:55.987Z,13.44
2022-11-23T00:41:27.006Z,13.45
2022-11-23T00:43:55.570Z,13.43
2022-11-23T00:46:30.012Z,13.36
2022-11-23T00:48:58.573Z,13.41
2022-11-23T00:51:32.782Z,13.41
2022-11-23T00:54:02.538Z,13.39
2022-11-23T00:56:34.780Z,13.38
2022-11-23T00:59:04.107Z,13.40
2022-11-23T01:01:37.398Z,13.38
2022-11-23T01:04:08.446Z,13.38
2022-11-23T01:06:40.837Z,13.33
2022-11-23T01:09:17.954Z,13.36
2022-11-23T01:11:46.165Z,13.35
2022-11-23T01:14:14.094Z,13.34
2022-11-23T01:16:42.552Z,13.30
2022-11-23T01:19:15.627Z,13.31
2022-11-23T01:21:44.029Z,13.37
2022-11-23T01:24:26.041Z,13.37
2022-11-23T01:26:55.630Z,13.31
2022-11-23T01:29:24.196Z,13.33
2022-11-23T01:31:52.449Z,13.32
2022-11-23T01:34:20.781Z,13.32
2022-11-23T01:36:48.935Z,13.31
2022-11-23T01:39:16.856Z,13.36
2022-11-23T01:41:46.057Z,13.36
2022-11-23T01:44:29.443Z,13.44
2022-11-23T01:47:11.009Z,13.46
2022-11-23T01:49:48.393Z,13.28
2022-11-23T01:52:24.996Z,13.38
2022-11-23T01:55:01.527Z,13.46
2022-11-23T01:57:39.203Z,13.46
2022-11-23T02:00:09.196Z,13.45
2022-11-23T02:02:57.620Z,13.51
2022-11-23T02:05:37.482Z,13.53
2022-11-23T02:08:07.408Z,13.41
2022-11-23T02:10:36.674Z,13.50
2022-11-23T02:13:12.699Z,13.53
2022-11-23T02:15:41.380Z,13.55
2022-11-23T02:18:19.800Z,13.62
2022-11-23T02:20:51.198Z,13.61
2022-11-23T02:23:46.601Z,13.63
2022-11-23T02:26:38.034Z,13.63
2022-11-23T02:29:24.358Z,13.64
2022-11-23T02:31:53.879Z,13.60
2022-11-23T02:34:25.139Z,13.67
2022-11-23T02:36:57.785Z,13.69
2022-11-23T02:39:44.882Z,13.71
2022-11-23T02:42:13.179Z,13.70
2022-11-23T02:45:08.652Z,13.74
2022-11-23T02:47:38.183Z,13.70
2022-11-23T02:50:06.841Z,13.71
2022-11-23T02:52:35.050Z,13.63
2022-11-23T02:55:02.967Z,13.72
2022-11-23T02:57:30.910Z,13.71
2022-11-23T02:59:59.039Z,13.69
2022-11-23T03:02:26.958Z,13.70
2022-11-23T03:04:55.323Z,13.71
2022-11-23T03:07:23.485Z,13.70
2022-11-23T03:09:51.637Z,13.59
2022-11-23T03:12:21.767Z,13.66
2022-11-23T03:14:49.604Z,13.63
2022-11-23T03:17:18.744Z,13.58
2022-11-23T03:19:46.949Z,13.57
2022-11-23T03:22:14.839Z,13.55
2022-11-23T03:24:42.633Z,13.55
2022-11-23T03:27:15.203Z,13.53
2022-11-23T03:29:45.102Z,13.52
2022-11-23T03:32:18.387Z,13.51
2022-11-23T03:34:50.138Z,13.51
2022-11-23T03:37:20.370Z,13.53
2022-11-23T03:39:48.756Z,13.52
2022-11-23T03:42:35.350Z,13.49
2022-11-23T03:45:03.796Z,13.50
2022-11-23T03:47:32.088Z,13.44
2022-11-23T03:50:00.106Z,13.51
2022-11-23T03:52:28.161Z,13.54
2022-11-23T03:54:57.195Z,13.52
2022-11-23T03:57:25.178Z,13.55
2022-11-23T03:59:54.535Z,13.54
2022-11-23T04:02:23.581Z,13.53
2022-11-23T04:05:02.327Z,13.54
2022-11-23T04:07:50.176Z,13.50
2022-11-23T04:10:19.962Z,13.49
2022-11-23T04:13:03.183Z,13.48
2022-11-23T04:15:31.282Z,13.45
2022-11-23T04:18:00.680Z,13.40
2022-11-23T04:20:28.927Z,13.36
2022-11-23T04:22:56.997Z,13.34
2022-11-23T04:25:27.799Z,13.23
2022-11-23T04:27:56.637Z,13.24
2022-11-23T04:30:25.401Z,13.21
2022-11-23T04:32:56.809Z,13.18
2022-11-23T04:35:24.996Z,13.20
2022-11-23T04:37:54.014Z,13.21
2022-11-23T04:40:25.506Z,13.19
2022-11-23T04:43:03.504Z,13.23
2022-11-23T04:45:39.913Z,13.28
2022-11-23T04:48:13.680Z,13.27
2022-11-23T04:50:46.618Z,13.29
2022-11-23T04:53:18.993Z,13.29
2022-11-23T04:55:50.923Z,13.29
2022-11-23T04:58:18.822Z,13.27
2022-11-23T05:00:51.577Z,13.25
2022-11-23T05:03:20.241Z,13.21
2022-11-23T05:05:50.016Z,13.15
2022-11-23T05:08:18.861Z,13.10
2022-11-23T05:11:01.561Z,13.03
2022-11-23T05:13:30.653Z,13.00
2022-11-23T05:16:00.460Z,12.91
2022-11-23T05:18:30.181Z,12.91
2022-11-23T05:20:58.519Z,12.85
2022-11-23T05:23:28.172Z,12.82
2022-11-23T05:25:57.602Z,12.80
2022-11-23T05:28:41.766Z,12.75
2022-11-23T05:31:13.742Z,12.71
2022-11-23T05:33:43.786Z,12.68
2022-11-23T05:36:14.249Z,12.68
2022-11-23T05:38:48.573Z,12.64
2022-11-23T05:41:22.728Z,12.64
2022-11-23T05:43:55.776Z,12.63
2022-11-23T05:46:28.247Z,12.60
2022-11-23T05:48:56.453Z,12.56
2022-11-23T05:51:25.646Z,12.49
2022-11-23T05:53:53.799Z,12.43
2022-11-23T05:56:40.146Z,12.37
2022-11-23T05:59:15.991Z,12.32
2022-11-23T06:01:48.639Z,12.26
2022-11-23T06:04:24.556Z,12.20
2022-11-23T06:06:54.929Z,12.12
2022-11-23T06:09:22.871Z,12.05
2022-11-23T06:11:54.069Z,11.93
2022-11-23T06:14:22.310Z,11.86
2022-11-23T06:16:52.045Z,11.82
2022-11-23T06:19:32.198Z,11.72
2022-11-23T06:22:00.294Z,11.68
2022-11-23T06:24:33.865Z,11.60
2022-11-23T06:27:20.583Z,11.54
2022-11-23T06:29:51.363Z,11.51
2022-11-23T06:32:21.471Z,11.47
2022-11-23T06:34:49.879Z,11.43
2022-11-23T06:37:18.230Z,11.39
2022-11-23T06:39:52.182Z,11.37
2022-11-23T06:45:15.342Z,11.23
2022-11-23T06:47:45.012Z,11.19
2022-11-23T06:50:14.907Z,11.15
2022-11-23T06:52:45.357Z,11.16
2022-11-23T06:55:13.295Z,11.14
2022-11-23T06:57:43.274Z,11.14
2022-11-23T07:00:14.925Z,11.13
2022-11-23T07:02:44.544Z,11.06
2022-11-23T07:05:14.935Z,11.04
2022-11-23T07:07:43.304Z,11.06
2022-11-23T07:10:18.629Z,11.03
2022-11-23T07:12:50.042Z,11.02
2022-11-23T07:15:21.408Z,11.01
2022-11-23T07:17:51.775Z,10.99
2022-11-23T07:20:21.942Z,10.99
2022-11-23T07:23:01.616Z,11.00
2022-11-23T07:25:32.131Z,10.95
2022-11-23T07:28:03.228Z,10.88
2022-11-23T07:30:34.546Z,10.85
2022-11-23T07:33:12.811Z,10.80
2022-11-23T07:35:43.284Z,10.77
2022-11-23T07:38:11.245Z,10.77
2022-11-23T07:40:41.084Z,10.76
2022-11-23T07:43:16.807Z,10.72
2022-11-23T07:45:55.165Z,10.74
2022-11-23T07:48:25.053Z,10.73
2022-11-23T07:50:54.347Z,10.76
2022-11-23T07:53:23.791Z,10.80
2022-11-23T07:55:59.448Z,10.89
2022-11-23T07:58:29.263Z,10.91
2022-11-23T08:00:57.533Z,10.96
2022-11-23T08:03:28.821Z,11.00
2022-11-23T08:05:57.400Z,10.89
2022-11-23T08:08:25.653Z,10.99
2022-11-23T08:10:54.604Z,11.10
2022-11-23T08:13:23.386Z,11.15
2022-11-23T08:15:55.532Z,11.14
2022-11-23T08:18:31.453Z,11.20
2022-11-23T08:21:01.915Z,11.17
2022-11-23T08:23:32.706Z,11.21
2022-11-23T08:26:10.372Z,11.28
2022-11-23T08:28:41.756Z,11.33
2022-11-23T08:31:16.983Z,11.42
2022-11-23T08:33:44.930Z,11.48
2022-11-23T08:36:12.751Z,11.55
2022-11-23T08:38:40.977Z,11.58
2022-11-23T08:41:10.131Z,11.63
2022-11-23T08:43:38.509Z,11.71
2022-11-23T08:46:10.900Z,11.81
2022-11-23T08:48:39.489Z,11.89
2022-11-23T08:51:08.173Z,11.92
2022-11-23T08:53:36.836Z,11.99
2022-11-23T08:56:06.768Z,12.07
2022-11-23T08:58:35.005Z,12.16
2022-11-23T09:01:07.295Z,12.24
2022-11-23T09:03:35.406Z,12.32
2022-11-23T09:06:03.660Z,12.39
2022-11-23T09:08:31.890Z,12.47
2022-11-23T09:11:07.925Z,12.54
2022-11-23T09:13:37.397Z,12.63
2022-11-23T09:16:07.477Z,12.69
2022-11-23T09:18:36.582Z,12.78
2022-11-23T09:21:05.934Z,12.84
2022-11-23T09:23:34.737Z,12.90
2022-11-23T09:26:05.703Z,12.96
2022-11-23T09:28:34.643Z,13.04
2022-11-23T09:31:05.019Z,13.09
2022-11-23T09:33:33.481Z,13.15
2022-11-23T09:36:04.274Z,13.23
2022-11-23T09:38:55.079Z,13.29
2022-11-23T09:41:38.347Z,13.37
2022-11-23T09:44:49.713Z,13.41
2022-11-23T09:48:07.358Z,13.43
2022-11-23T09:50:52.652Z,13.47
2022-11-23T09:53:54.240Z,13.52
2022-11-23T09:56:36.521Z,13.56
2022-11-23T09:59:18.781Z,13.62
2022-11-23T10:01:46.988Z,13.63
2022-11-23T10:04:20.711Z,13.72
2022-11-23T10:07:18.059Z,13.75
2022-11-23T10:10:02.668Z,13.79
2022-11-23T10:13:06.040Z,13.84
2022-11-23T10:16:07.479Z,13.86
2022-11-23T10:18:58.066Z,13.91
2022-11-23T10:21:59.545Z,13.96
2022-11-23T10:24:39.042Z,14.01
2022-11-23T10:27:16.686Z,14.05
2022-11-23T10:29:45.486Z,14.07
2022-11-23T10:32:42.516Z,14.13
2022-11-23T10:35:34.288Z,14.16
2022-11-23T10:38:26.848Z,14.22
2022-11-23T10:41:15.856Z,14.29
2022-11-23T10:44:19.155Z,14.29
2022-11-23T10:46:47.488Z,14.30
2022-11-23T10:49:29.648Z,14.38
2022-11-23T10:52:05.958Z,14.40
2022-11-23T10:54:58.990Z,14.40
2022-11-23T10:57:42.652Z,14.43
2022-11-23T11:00:16.554Z,14.46
2022-11-23T11:02:54.892Z,14.46
2022-11-23T11:06:09.575Z,14.51
2022-11-23T11:09:00.451Z,14.52
2022-11-23T11:11:34.733Z,14.51
2022-11-23T11:14:25.333Z,14.39
2022-11-23T11:16:57.978Z,14.53
2022-11-23T11:19:35.639Z,14.63
2022-11-23T11:22:33.527Z,14.68
2022-11-23T11:25:04.909Z,14.71
2022-11-23T11:27:33.270Z,14.73
2022-11-23T11:30:20.616Z,14.81
2022-11-23T11:33:13.822Z,14.84
2022-11-23T11:35:49.450Z,14.87
2022-11-23T11:38:24.532Z,14.88
2022-11-23T11:40:56.492Z,14.93
2022-11-23T11:43:48.641Z,14.98
2022-11-23T11:46:31.276Z,14.97
2022-11-23T11:49:06.490Z,15.00
2022-11-23T11:51:42.943Z,15.00
2022-11-23T11:54:37.453Z,15.05
2022-11-23T11:57:45.771Z,15.05
2022-11-23T12:00:19.721Z,15.08
2022-11-23T12:03:15.006Z,15.13
2022-11-23T12:05:51.315Z,15.12
2022-11-23T12:08:45.752Z,15.16
2022-11-23T12:11:13.912Z,15.14
2022-11-23T12:13:46.947Z,15.16
2022-11-23T12:17:10.153Z,15.18
2022-11-23T12:20:05.749Z,15.18
2022-11-23T12:23:12.409Z,15.17
2022-11-23T12:26:11.654Z,15.21
2022-11-23T12:29:01.886Z,15.25
2022-11-23T12:31:54.584Z,15.29
2022-11-23T12:34:56.637Z,15.31
2022-11-23T12:37:53.568Z,15.31
2022-11-23T12:40:46.064Z,15.32
2022-11-23T12:43:38.325Z,15.30
2022-11-23T12:46:33.746Z,15.36
2022-11-23T12:49:39.380Z,15.37
2022-11-23T12:52:30.112Z,15.38
2022-11-23T12:55:20.112Z,15.40
2022-11-23T12:58:33.698Z,15.37
2022-11-23T13:01:32.469Z,15.37
2022-11-23T13:05:01.856Z,15.36
2022-11-23T13:08:02.515Z,15.37
2022-11-23T13:10:52.218Z,15.40
2022-11-23T13:13:33.418Z,15.49
2022-11-23T13:16:22.105Z,15.53
2022-11-23T13:19:11.284Z,15.58
2022-11-23T13:21:44.188Z,15.54
2022-11-23T13:24:30.862Z,15.61
2022-11-23T13:27:14.825Z,15.60
2022-11-23T13:29:52.208Z,15.60
2022-11-23T13:32:38.861Z,15.64
2022-11-23T13:35:17.300Z,15.65
2022-11-23T13:38:14.564Z,15.67
2022-11-23T13:40:45.601Z,15.68
2022-11-23T13:43:43.012Z,15.72
2022-11-23T13:46:29.557Z,15.76
2022-11-23T13:49:01.663Z,15.75
2022-11-23T13:51:34.151Z,15.79
2022-11-23T13:54:06.460Z,15.82
2022-11-23T13:56:44.505Z,15.80
2022-11-23T13:59:24.816Z,15.82
2022-11-23T14:02:08.329Z,15.82
2022-11-23T14:04:42.318Z,15.78
2022-11-23T14:07:29.916Z,15.78
2022-11-23T14:10:21.087Z,15.71
2022-11-23T14:13:08.969Z,15.65
2022-11-23T14:15:41.218Z,15.64
2022-11-23T14:18:55.012Z,15.64
2022-11-23T14:21:42.015Z,15.62
2022-11-23T14:24:50.677Z,15.54
2022-11-23T14:27:53.444Z,15.53
2022-11-23T14:30:47.897Z,15.48
2022-11-23T14:33:52.842Z,15.46
2022-11-23T14:36:46.804Z,15.45
2022-11-23T14:39:51.907Z,15.41
2022-11-23T14:42:25.912Z,15.36
2022-11-23T14:44:56.310Z,15.35
2022-11-23T14:47:31.358Z,15.36
2022-11-23T14:49:59.766Z,15.30
2022-11-23T14:52:37.117Z,15.30
2022-11-23T14:55:06.845Z,15.29
2022-11-23T14:57:47.041Z,15.28
2022-11-23T15:00:41.536Z,15.24
2022-11-23T15:03:49.319Z,15.18
2022-11-23T15:06:16.784Z,15.16
2022-11-23T15:09:13.895Z,15.12
2022-11-23T15:11:41.912Z,15.05
2022-11-23T15:14:26.717Z,15.05
2022-11-23T15:16:55.967Z,15.02
2022-11-23T15:19:29.800Z,15.05
2022-11-23T15:21:58.648Z,15.03
2022-11-23T15:24:28.398Z,15.10
2022-11-23T15:27:10.780Z,15.15
2022-11-23T15:29:40.970Z,15.15
2022-11-23T15:32:34.239Z,15.21
2022-11-23T15:35:13.257Z,15.21
2022-11-23T15:37:48.987Z,15.21
2022-11-23T15:40:19.406Z,15.22
2022-11-23T15:42:51.493Z,15.18
2022-11-23T15:45:47.181Z,15.23
2022-11-23T15:48:21.353Z,15.20
2022-11-23T15:50:53.024Z,15.22
2022-11-23T15:53:53.122Z,15.21
2022-11-23T15:56:38.401Z,15.24
2022-11-23T15:59:43.429Z,15.25
2022-11-23T16:02:27.291Z,15.25
2022-11-23T16:05:15.767Z,15.29
2022-11-23T16:08:01.852Z,15.30
2022-11-23T16:10:35.386Z,15.31
2022-11-23T16:13:06.277Z,15.32
2022-11-23T16:15:42.024Z,15.34
2022-11-23T16:18:28.556Z,15.39
2022-11-23T16:21:03.049Z,15.39
2022-11-23T16:23:49.488Z,15.43
2022-11-23T16:26:18.183Z,15.42
2022-11-23T16:28:58.335Z,15.45
2022-11-23T16:31:42.903Z,15.47
2022-11-23T16:34:31.039Z,15.43
2022-11-23T16:37:04.263Z,15.50
2022-11-23T16:39:32.334Z,15.47
2022-11-23T16:42:00.316Z,15.48
2022-11-23T16:44:31.239Z,15.49
2022-11-23T16:47:25.280Z,15.46
2022-11-23T16:49:54.380Z,15.44
2022-11-23T16:52:24.346Z,15.44
2022-11-23T16:54:55.828Z,15.44
2022-11-23T16:57:34.197Z,15.44
2022-11-23T17:00:07.653Z,15.37
2022-11-23T17:02:36.248Z,15.32
2022-11-23T17:05:13.470Z,15.33
2022-11-23T17:07:43.425Z,15.24
2022-11-23T17:10:16.170Z,15.26
2022-11-23T17:12:54.991Z,15.25
2022-11-23T17:15:24.128Z,15.22
2022-11-23T17:17:52.519Z,15.21
2022-11-23T17:20:20.987Z,15.21
2022-11-23T17:22:52.487Z,15.16
2022-11-23T17:25:20.692Z,15.16
2022-11-23T17:27:49.892Z,15.15
2022-11-23T17:30:23.672Z,15.18
2022-11-23T17:32:52.100Z,15.15
2022-11-23T17:35:21.037Z,15.12
2022-11-23T17:37:49.790Z,15.13
2022-11-23T17:40:21.946Z,15.14
2022-11-23T17:42:50.482Z,15.11
2022-11-23T17:45:18.615Z,15.12
2022-11-23T17:47:47.270Z,15.10
2022-11-23T17:50:19.584Z,15.11
2022-11-23T17:52:48.539Z,15.07
2022-11-23T17:55:18.282Z,15.09
2022-11-23T17:57:46.329Z,15.11
2022-11-23T18:00:24.941Z,15.09
2022-11-23T18:02:54.040Z,15.06
2022-11-23T18:05:22.641Z,15.04
2022-11-23T18:07:53.786Z,15.06
2022-11-23T18:10:23.380Z,15.01
2022-11-23T18:12:51.879Z,15.00
2022-11-23T18:15:19.924Z,14.96
2022-11-23T18:17:48.014Z,14.94
2022-11-23T18:20:18.882Z,14.96
2022-11-23T18:22:47.692Z,14.91
2022-11-23T18:25:16.361Z,14.90
2022-11-23T18:27:44.418Z,14.89
2022-11-23T18:30:16.495Z,14.91
2022-11-23T18:32:44.781Z,14.87
2022-11-23T18:35:12.622Z,14.81
2022-11-23T18:37:40.817Z,14.79
2022-11-23T18:40:10.104Z,14.76
2022-11-23T18:42:38.399Z,14.71
2022-11-23T18:45:11.531Z,14.68
2022-11-23T18:47:41.983Z,14.63
2022-11-23T18:50:10.324Z,14.55
2022-11-23T18:52:38.842Z,14.56
2022-11-23T18:55:09.173Z,14.53
2022-11-23T18:57:38.778Z,14.51
2022-11-23T19:00:11.854Z,14.46
2022-11-23T19:02:42.104Z,14.39
2022-11-23T19:05:10.657Z,14.35
2022-11-23T19:07:38.960Z,14.30
2022-11-23T19:10:08.297Z,14.30
2022-11-23T19:12:37.040Z,14.26
2022-11-23T19:15:06.750Z,14.20
2022-11-23T19:17:35.032Z,14.20
2022-11-23T19:20:07.267Z,14.21
2022-11-23T19:22:36.710Z,14.20
2022-11-23T19:25:06.963Z,14.20
2022-11-23T19:27:37.038Z,14.23
2022-11-23T19:30:09.821Z,14.22
2022-11-23T19:32:38.518Z,14.20
2022-11-23T19:35:07.794Z,14.14
2022-11-23T19:37:41.168Z,14.16
2022-11-23T19:40:13.186Z,14.10
2022-11-23T19:42:43.244Z,14.12
2022-11-23T19:45:11.884Z,14.12
2022-11-23T19:47:40.518Z,14.14
2022-11-23T19:50:10.913Z,14.14
2022-11-23T19:53:09.906Z,14.14
2022-11-23T19:55:28.449Z,14.16
2022-11-23T19:57:57.813Z,14.18
2022-11-23T20:00:26.043Z,14.17
2022-11-23T20:02:54.883Z,14.22
2022-11-23T20:05:23.538Z,14.22
2022-11-23T20:07:52.672Z,14.27
2022-11-23T20:10:22.207Z,14.31
2022-11-23T20:12:50.873Z,14.31
2022-11-23T20:15:21.596Z,14.33
2022-11-23T20:17:51.544Z,14.33
2022-11-23T20:20:20.945Z,14.35
2022-11-23T20:22:50.976Z,14.33
2022-11-23T20:25:20.376Z,14.31
2022-11-23T20:27:49.389Z,14.32
2022-11-23T20:30:19.379Z,14.32
2022-11-23T20:32:51.850Z,14.37
2022-11-23T20:35:23.354Z,14.36
2022-11-23T20:37:52.745Z,14.37
2022-11-23T20:40:22.280Z,14.33
2022-11-23T20:42:50.813Z,14.28
2022-11-23T20:45:19.609Z,14.26
2022-11-23T20:47:48.464Z,14.21
2022-11-23T20:50:17.323Z,14.17
2022-11-23T20:52:45.918Z,14.09
2022-11-23T20:55:16.476Z,14.12
2022-11-23T20:57:45.957Z,14.12
2022-11-23T21:00:17.210Z,14.10
2022-11-23T21:02:52.974Z,14.12
2022-11-23T21:05:21.789Z,14.11
2022-11-23T21:07:50.729Z,14.14
2022-11-23T21:10:37.511Z,14.02
2022-11-23T21:13:48.518Z,14.03
2022-11-23T21:16:17.778Z,14.08
2022-11-23T21:18:47.062Z,14.12
2022-11-23T21:21:15.567Z,14.12
2022-11-23T21:23:46.130Z,14.10
2022-11-23T21:26:22.594Z,14.12
2022-11-23T21:28:54.974Z,14.17
2022-11-23T21:31:23.492Z,14.17
2022-11-23T21:33:53.997Z,14.20
2022-11-23T21:36:23.887Z,14.18
2022-11-23T21:38:52.509Z,14.21
2022-11-23T21:41:20.568Z,14.25
2022-11-23T21:43:52.719Z,14.25
2022-11-23T21:46:21.721Z,14.28
2022-11-23T21:48:54.529Z,14.30
2022-11-23T21:51:28.729Z,14.26
2022-11-23T21:54:02.456Z,14.30
2022-11-23T21:56:32.143Z,14.28
2022-11-23T21:59:00.933Z,14.29
2022-11-23T22:01:34.998Z,14.32
2022-11-23T22:04:09.049Z,14.32
2022-11-23T22:06:38.621Z,14.33
2022-11-23T22:09:09.925Z,14.35
2022-11-23T22:11:41.188Z,14.35
2022-11-23T22:14:15.368Z,14.33
2022-11-23T22:16:56.910Z,14.32
2022-11-23T22:19:24.814Z,14.20
2022-11-23T22:21:53.018Z,14.25
2022-11-23T22:24:23.769Z,14.22
2022-11-23T22:26:51.691Z,14.22
2022-11-23T22:29:20.429Z,14.24
2022-11-23T22:31:48.449Z,14.24
2022-11-23T22:34:16.536Z,14.24
2022-11-23T22:36:44.475Z,14.29
2022-11-23T22:39:12.335Z,14.28
2022-11-23T22:41:40.952Z,14.30
2022-11-23T22:44:11.708Z,14.36
2022-11-23T22:46:46.775Z,14.37
2022-11-23T22:52:09.646Z,14.43
2022-11-23T22:54:40.598Z,14.41
2022-11-23T22:57:31.501Z,14.48
2022-11-23T23:00:22.365Z,14.48
2022-11-23T23:02:58.838Z,14.49
2022-11-23T23:05:38.583Z,14.49
2022-11-23T23:08:19.871Z,14.45
2022-11-23T23:10:54.375Z,14.44
2022-11-23T23:13:28.813Z,14.46
2022-11-23T23:16:27.158Z,14.42
2022-11-23T23:19:07.934Z,14.36
2022-11-23T23:21:54.836Z,14.33
2022-11-23T23:24:23.243Z,14.25
2022-11-23T23:26:51.115Z,14.28
2022-11-23T23:29:19.449Z,14.24
2022-11-23T23:31:47.525Z,14.20
2022-11-23T23:34:15.316Z,14.19
2022-11-23T23:36:43.058Z,14.18
2022-11-23T23:39:12.632Z,14.16
2022-11-23T23:41:40.683Z,14.13
2022-11-23T23:44:08.693Z,14.15
2022-11-23T23:46:37.342Z,14.16
2022-11-23T23:49:05.126Z,14.17
2022-11-23T23:51:32.980Z,14.14
2022-11-23T23:54:00.883Z,14.17
2022-11-23T23:56:29.396Z,14.18
2022-11-23T23:58:59.116Z,14.16
